sensor_id;sensor_type;location;lat;lon;timestamp;temperature;humidity
30648;DHT22;17683;53.360;9.736;2022-07-29T00:00:00;13.30;99.90
30648;DHT22;17683;53.360;9.736;2022-07-29T00:02:27;13.30;99.90
30648;DHT22;17683;53.360;9.736;2022-07-29T00:04:53;13.20;99.90
30648;DHT22;17683;53.360;9.736;2022-07-29T00:07:18;13.20;99.90
30648;DHT22;17683;53.360;9.736;2022-07-29T00:09:44;13.20;99.90
30648;DHT22;17683;53.360;9.736;2022-07-29T00:12:10;13.20;99.90
30648;DHT22;17683;53.360;9.736;2022-07-29T00:14:36;13.10;99.90
30648;DHT22;17683;53.360;9.736;2022-07-29T00:17:02;13.10;99.90
30648;DHT22;17683;53.360;9.736;2022-07-29T00:19:28;13.10;99.90
30648;DHT22;17683;53.360;9.736;2022-07-29T00:21:54;13.10;99.90
30648;DHT22;17683;53.360;9.736;2022-07-29T00:24:19;13.00;99.90
30648;DHT22;17683;53.360;9.736;2022-07-29T00:26:45;13.00;99.90
30648;DHT22;17683;53.360;9.736;2022-07-29T00:29:11;13.00;99.90
30648;DHT22;17683;53.360;9.736;2022-07-29T00:31:36;13.00;99.90
30648;DHT22;17683;53.360;9.736;2022-07-29T00:34:02;13.00;99.90
30648;DHT22;17683;53.360;9.736;2022-07-29T00:36:28;13.00;99.90
30648;DHT22;17683;53.360;9.736;2022-07-29T00:38:54;12.90;99.90
30648;DHT22;17683;53.360;9.736;2022-07-29T00:41:20;12.90;99.90
30648;DHT22;17683;53.360;9.736;2022-07-29T00:43:46;12.90;99.90
30648;DHT22;17683;53.360;9.736;2022-07-29T00:46:12;12.90;99.90
30648;DHT22;17683;53.360;9.736;2022-07-29T00:48:38;12.90;99.90
30648;DHT22;17683;53.360;9.736;2022-07-29T00:51:05;12.90;99.90
30648;DHT22;17683;53.360;9.736;2022-07-29T00:53:31;12.90;99.90
30648;DHT22;17683;53.360;9.736;2022-07-29T00:55:58;12.90;99.90
30648;DHT22;17683;53.360;9.736;2022-07-29T00:58:24;12.90;99.90
30648;DHT22;17683;53.360;9.736;2022-07-29T01:00:52;12.90;99.90
30648;DHT22;17683;53.360;9.736;2022-07-29T01:03:18;12.90;99.90
30648;DHT22;17683;53.360;9.736;2022-07-29T01:05:44;12.90;99.90
30648;DHT22;17683;53.360;9.736;2022-07-29T01:08:14;12.90;99.90
30648;DHT22;17683;53.360;9.736;2022-07-29T01:10:41;12.90;99.90
30648;DHT22;17683;53.360;9.736;2022-07-29T01:13:07;12.90;99.90
30648;DHT22;17683;53.360;9.736;2022-07-29T01:15:41;12.90;99.90
30648;DHT22;17683;53.360;9.736;2022-07-29T01:20:46;12.90;99.90
30648;DHT22;17683;53.360;9.736;2022-07-29T01:29:03;13.00;99.90
30648;DHT22;17683;53.360;9.736;2022-07-29T01:34:14;13.10;99.90
30648;DHT22;17683;53.360;9.736;2022-07-29T01:36:55;13.10;99.90
30648;DHT22;17683;53.360;9.736;2022-07-29T01:39:36;13.20;99.90
30648;DHT22;17683;53.360;9.736;2022-07-29T01:48:05;13.40;99.90
30648;DHT22;17683;53.360;9.736;2022-07-29T01:50:40;13.40;99.90
30648;DHT22;17683;53.360;9.736;2022-07-29T01:53:10;13.40;99.90
30648;DHT22;17683;53.360;9.736;2022-07-29T01:55:44;13.40;99.90
30648;DHT22;17683;53.360;9.736;2022-07-29T01:58:11;13.40;99.90
30648;DHT22;17683;53.360;9.736;2022-07-29T02:00:38;13.50;99.90
30648;DHT22;17683;53.360;9.736;2022-07-29T02:03:09;13.50;99.90
30648;DHT22;17683;53.360;9.736;2022-07-29T02:05:36;13.50;99.90
30648;DHT22;17683;53.360;9.736;2022-07-29T02:08:03;13.50;99.90
30648;DHT22;17683;53.360;9.736;2022-07-29T02:10:32;13.60;99.90
30648;DHT22;17683;53.360;9.736;2022-07-29T02:12:59;13.60;99.90
30648;DHT22;17683;53.360;9.736;2022-07-29T02:15:29;13.70;99.90
30648;DHT22;17683;53.360;9.736;2022-07-29T02:18:02;13.70;99.90
30648;DHT22;17683;53.360;9.736;2022-07-29T02:20:30;13.70;99.90
30648;DHT22;17683;53.360;9.736;2022-07-29T02:22:57;13.70;99.90
30648;DHT22;17683;53.360;9.736;2022-07-29T02:25:24;13.70;99.90
30648;DHT22;17683;53.360;9.736;2022-07-29T02:27:51;13.80;99.90
30648;DHT22;17683;53.360;9.736;2022-07-29T02:30:19;13.80;99.90
30648;DHT22;17683;53.360;9.736;2022-07-29T02:32:46;13.80;99.90
30648;DHT22;17683;53.360;9.736;2022-07-29T02:35:15;13.90;99.90
30648;DHT22;17683;53.360;9.736;2022-07-29T02:37:43;13.90;99.90
30648;DHT22;17683;53.360;9.736;2022-07-29T02:40:11;13.90;99.90
30648;DHT22;17683;53.360;9.736;2022-07-29T02:42:41;13.90;99.90
30648;DHT22;17683;53.360;9.736;2022-07-29T02:45:08;13.90;99.90
30648;DHT22;17683;53.360;9.736;2022-07-29T02:47:38;13.90;99.90
30648;DHT22;17683;53.360;9.736;2022-07-29T02:50:18;14.00;99.90
30648;DHT22;17683;53.360;9.736;2022-07-29T02:52:55;14.00;99.90
30648;DHT22;17683;53.360;9.736;2022-07-29T02:55:30;14.00;99.90
30648;DHT22;17683;53.360;9.736;2022-07-29T02:58:30;14.00;99.90
30648;DHT22;17683;53.360;9.736;2022-07-29T03:01:01;14.00;99.90
30648;DHT22;17683;53.360;9.736;2022-07-29T03:03:30;14.00;99.90
30648;DHT22;17683;53.360;9.736;2022-07-29T03:05:58;14.00;99.90
30648;DHT22;17683;53.360;9.736;2022-07-29T03:08:26;14.00;99.90
30648;DHT22;17683;53.360;9.736;2022-07-29T03:10:53;14.00;99.90
30648;DHT22;17683;53.360;9.736;2022-07-29T03:13:20;14.00;99.90
30648;DHT22;17683;53.360;9.736;2022-07-29T03:15:47;14.00;99.90
30648;DHT22;17683;53.360;9.736;2022-07-29T03:18:14;14.00;99.90
30648;DHT22;17683;53.360;9.736;2022-07-29T03:20:40;14.00;99.90
30648;DHT22;17683;53.360;9.736;2022-07-29T03:23:06;14.00;99.90
30648;DHT22;17683;53.360;9.736;2022-07-29T03:25:33;14.00;99.90
30648;DHT22;17683;53.360;9.736;2022-07-29T03:27:59;14.00;99.90
30648;DHT22;17683;53.360;9.736;2022-07-29T03:30:24;14.00;99.90
30648;DHT22;17683;53.360;9.736;2022-07-29T03:32:51;14.00;99.90
30648;DHT22;17683;53.360;9.736;2022-07-29T03:35:17;14.00;99.90
30648;DHT22;17683;53.360;9.736;2022-07-29T03:37:44;14.00;99.90
30648;DHT22;17683;53.360;9.736;2022-07-29T03:40:11;14.00;99.90
30648;DHT22;17683;53.360;9.736;2022-07-29T03:42:40;14.00;99.90
30648;DHT22;17683;53.360;9.736;2022-07-29T03:45:11;14.00;99.90
30648;DHT22;17683;53.360;9.736;2022-07-29T03:47:42;14.00;99.90
30648;DHT22;17683;53.360;9.736;2022-07-29T03:50:11;14.00;99.90
30648;DHT22;17683;53.360;9.736;2022-07-29T03:52:38;14.00;99.90
30648;DHT22;17683;53.360;9.736;2022-07-29T03:55:05;14.00;99.90
30648;DHT22;17683;53.360;9.736;2022-07-29T03:57:32;14.10;99.90
30648;DHT22;17683;53.360;9.736;2022-07-29T04:00:00;14.10;99.90
30648;DHT22;17683;53.360;9.736;2022-07-29T04:02:26;14.10;99.90
30648;DHT22;17683;53.360;9.736;2022-07-29T04:04:52;14.10;99.90
30648;DHT22;17683;53.360;9.736;2022-07-29T04:07:18;14.10;99.90
30648;DHT22;17683;53.360;9.736;2022-07-29T04:09:44;14.10;99.90
30648;DHT22;17683;53.360;9.736;2022-07-29T04:12:10;14.20;99.90
30648;DHT22;17683;53.360;9.736;2022-07-29T04:14:35;14.20;99.90
30648;DHT22;17683;53.360;9.736;2022-07-29T04:17:03;14.10;99.90
30648;DHT22;17683;53.360;9.736;2022-07-29T04:19:28;14.20;99.90
30648;DHT22;17683;53.360;9.736;2022-07-29T04:21:54;14.20;99.90
30648;DHT22;17683;53.360;9.736;2022-07-29T04:24:20;14.20;99.90
30648;DHT22;17683;53.360;9.736;2022-07-29T04:26:46;14.20;99.90
30648;DHT22;17683;53.360;9.736;2022-07-29T04:29:12;14.20;99.90
30648;DHT22;17683;53.360;9.736;2022-07-29T04:31:40;14.30;99.90
30648;DHT22;17683;53.360;9.736;2022-07-29T04:34:06;14.30;99.90
30648;DHT22;17683;53.360;9.736;2022-07-29T04:36:32;14.30;99.90
30648;DHT22;17683;53.360;9.736;2022-07-29T04:38:58;14.30;99.90
30648;DHT22;17683;53.360;9.736;2022-07-29T04:41:24;14.40;99.90
30648;DHT22;17683;53.360;9.736;2022-07-29T04:43:50;14.40;99.90
30648;DHT22;17683;53.360;9.736;2022-07-29T04:46:15;14.40;99.90
30648;DHT22;17683;53.360;9.736;2022-07-29T04:48:41;14.40;99.90
30648;DHT22;17683;53.360;9.736;2022-07-29T04:51:07;14.50;99.90
30648;DHT22;17683;53.360;9.736;2022-07-29T04:53:32;14.50;99.90
30648;DHT22;17683;53.360;9.736;2022-07-29T04:55:58;14.60;99.90
30648;DHT22;17683;53.360;9.736;2022-07-29T04:58:24;14.60;99.90
30648;DHT22;17683;53.360;9.736;2022-07-29T05:00:50;14.60;99.90
30648;DHT22;17683;53.360;9.736;2022-07-29T05:03:16;14.60;99.90
30648;DHT22;17683;53.360;9.736;2022-07-29T05:05:42;14.70;99.90
30648;DHT22;17683;53.360;9.736;2022-07-29T05:08:08;14.70;99.90
30648;DHT22;17683;53.360;9.736;2022-07-29T05:10:34;14.80;99.90
30648;DHT22;17683;53.360;9.736;2022-07-29T05:13:04;14.70;99.90
30648;DHT22;17683;53.360;9.736;2022-07-29T05:15:31;14.80;99.90
30648;DHT22;17683;53.360;9.736;2022-07-29T05:17:57;14.90;99.90
30648;DHT22;17683;53.360;9.736;2022-07-29T05:20:22;14.90;99.90
30648;DHT22;17683;53.360;9.736;2022-07-29T05:22:56;14.90;99.90
30648;DHT22;17683;53.360;9.736;2022-07-29T05:25:23;15.00;99.90
30648;DHT22;17683;53.360;9.736;2022-07-29T05:27:49;15.00;99.90
30648;DHT22;17683;53.360;9.736;2022-07-29T05:30:15;15.10;99.90
30648;DHT22;17683;53.360;9.736;2022-07-29T05:32:40;15.20;99.90
30648;DHT22;17683;53.360;9.736;2022-07-29T05:35:07;15.20;99.90
30648;DHT22;17683;53.360;9.736;2022-07-29T05:37:33;15.20;99.90
30648;DHT22;17683;53.360;9.736;2022-07-29T05:39:59;15.30;99.90
30648;DHT22;17683;53.360;9.736;2022-07-29T05:42:25;15.30;99.90
30648;DHT22;17683;53.360;9.736;2022-07-29T05:44:51;15.40;99.90
30648;DHT22;17683;53.360;9.736;2022-07-29T05:47:17;15.40;99.90
30648;DHT22;17683;53.360;9.736;2022-07-29T05:49:43;15.50;99.90
30648;DHT22;17683;53.360;9.736;2022-07-29T05:52:09;15.50;99.90
30648;DHT22;17683;53.360;9.736;2022-07-29T05:54:35;15.60;99.90
30648;DHT22;17683;53.360;9.736;2022-07-29T05:57:01;15.60;99.90
30648;DHT22;17683;53.360;9.736;2022-07-29T05:59:27;15.70;99.90
30648;DHT22;17683;53.360;9.736;2022-07-29T06:01:52;15.80;99.90
30648;DHT22;17683;53.360;9.736;2022-07-29T06:04:18;15.80;99.90
30648;DHT22;17683;53.360;9.736;2022-07-29T06:06:44;15.90;99.90
30648;DHT22;17683;53.360;9.736;2022-07-29T06:09:09;15.90;99.90
30648;DHT22;17683;53.360;9.736;2022-07-29T06:11:35;16.00;99.90
30648;DHT22;17683;53.360;9.736;2022-07-29T06:14:01;16.00;99.90
30648;DHT22;17683;53.360;9.736;2022-07-29T06:16:28;16.10;99.90
30648;DHT22;17683;53.360;9.736;2022-07-29T06:18:54;16.10;99.90
30648;DHT22;17683;53.360;9.736;2022-07-29T06:21:19;16.20;99.90
30648;DHT22;17683;53.360;9.736;2022-07-29T06:23:46;16.30;99.90
30648;DHT22;17683;53.360;9.736;2022-07-29T06:26:12;16.40;99.90
30648;DHT22;17683;53.360;9.736;2022-07-29T06:28:38;16.40;99.90
30648;DHT22;17683;53.360;9.736;2022-07-29T06:31:05;16.50;99.90
30648;DHT22;17683;53.360;9.736;2022-07-29T06:33:30;16.50;99.90
30648;DHT22;17683;53.360;9.736;2022-07-29T06:35:56;16.60;99.90
30648;DHT22;17683;53.360;9.736;2022-07-29T06:38:22;16.70;99.90
30648;DHT22;17683;53.360;9.736;2022-07-29T06:40:48;16.70;99.90
30648;DHT22;17683;53.360;9.736;2022-07-29T06:43:34;16.70;99.90
30648;DHT22;17683;53.360;9.736;2022-07-29T06:46:06;16.80;99.90
30648;DHT22;17683;53.360;9.736;2022-07-29T06:48:33;16.80;99.90
30648;DHT22;17683;53.360;9.736;2022-07-29T06:50:59;16.80;99.90
30648;DHT22;17683;53.360;9.736;2022-07-29T06:53:26;16.80;99.90
30648;DHT22;17683;53.360;9.736;2022-07-29T06:55:52;16.90;99.90
30648;DHT22;17683;53.360;9.736;2022-07-29T06:58:18;16.90;99.90
30648;DHT22;17683;53.360;9.736;2022-07-29T07:00:46;17.10;99.90
30648;DHT22;17683;53.360;9.736;2022-07-29T07:03:13;17.00;99.90
30648;DHT22;17683;53.360;9.736;2022-07-29T07:05:39;17.10;99.90
30648;DHT22;17683;53.360;9.736;2022-07-29T07:08:06;17.10;99.90
30648;DHT22;17683;53.360;9.736;2022-07-29T07:10:32;17.20;99.90
30648;DHT22;17683;53.360;9.736;2022-07-29T07:12:59;17.30;99.90
30648;DHT22;17683;53.360;9.736;2022-07-29T07:15:25;17.30;99.90
30648;DHT22;17683;53.360;9.736;2022-07-29T07:17:50;17.40;99.90
30648;DHT22;17683;53.360;9.736;2022-07-29T07:20:17;17.50;99.90
30648;DHT22;17683;53.360;9.736;2022-07-29T07:22:43;17.50;99.90
30648;DHT22;17683;53.360;9.736;2022-07-29T07:25:09;17.60;99.90
30648;DHT22;17683;53.360;9.736;2022-07-29T07:27:36;17.70;99.90
30648;DHT22;17683;53.360;9.736;2022-07-29T07:30:06;17.70;99.90
30648;DHT22;17683;53.360;9.736;2022-07-29T07:32:35;17.80;99.90
30648;DHT22;17683;53.360;9.736;2022-07-29T07:35:01;17.90;99.90
30648;DHT22;17683;53.360;9.736;2022-07-29T07:37:27;18.00;99.90
30648;DHT22;17683;53.360;9.736;2022-07-29T07:39:53;18.10;99.90
30648;DHT22;17683;53.360;9.736;2022-07-29T07:42:19;18.20;99.90
30648;DHT22;17683;53.360;9.736;2022-07-29T07:44:45;18.40;99.90
30648;DHT22;17683;53.360;9.736;2022-07-29T07:47:12;18.60;99.90
30648;DHT22;17683;53.360;9.736;2022-07-29T07:49:38;18.80;99.90
30648;DHT22;17683;53.360;9.736;2022-07-29T07:52:04;19.00;99.90
30648;DHT22;17683;53.360;9.736;2022-07-29T07:54:30;19.30;99.90
30648;DHT22;17683;53.360;9.736;2022-07-29T07:56:56;19.50;99.20
30648;DHT22;17683;53.360;9.736;2022-07-29T07:59:22;19.70;99.30
30648;DHT22;17683;53.360;9.736;2022-07-29T08:01:48;19.80;98.50
30648;DHT22;17683;53.360;9.736;2022-07-29T08:04:14;19.90;98.40
30648;DHT22;17683;53.360;9.736;2022-07-29T08:06:40;20.00;98.30
30648;DHT22;17683;53.360;9.736;2022-07-29T08:09:05;20.10;98.30
30648;DHT22;17683;53.360;9.736;2022-07-29T08:11:31;20.20;98.60
30648;DHT22;17683;53.360;9.736;2022-07-29T08:13:58;20.30;98.70
30648;DHT22;17683;53.360;9.736;2022-07-29T08:16:23;20.40;98.70
30648;DHT22;17683;53.360;9.736;2022-07-29T08:18:51;20.50;98.50
30648;DHT22;17683;53.360;9.736;2022-07-29T08:21:17;20.50;98.10
30648;DHT22;17683;53.360;9.736;2022-07-29T08:23:44;20.60;97.90
30648;DHT22;17683;53.360;9.736;2022-07-29T08:26:19;20.70;97.80
30648;DHT22;17683;53.360;9.736;2022-07-29T08:28:46;20.70;97.40
30648;DHT22;17683;53.360;9.736;2022-07-29T08:31:14;20.80;97.40
30648;DHT22;17683;53.360;9.736;2022-07-29T08:33:40;20.80;97.30
30648;DHT22;17683;53.360;9.736;2022-07-29T08:36:06;20.80;97.50
30648;DHT22;17683;53.360;9.736;2022-07-29T08:38:32;20.90;97.40
30648;DHT22;17683;53.360;9.736;2022-07-29T08:40:59;20.90;97.40
30648;DHT22;17683;53.360;9.736;2022-07-29T08:43:25;21.00;97.50
30648;DHT22;17683;53.360;9.736;2022-07-29T08:45:51;21.00;97.00
30648;DHT22;17683;53.360;9.736;2022-07-29T08:48:24;21.00;97.30
30648;DHT22;17683;53.360;9.736;2022-07-29T08:50:52;21.00;97.70
30648;DHT22;17683;53.360;9.736;2022-07-29T08:53:21;20.90;97.10
30648;DHT22;17683;53.360;9.736;2022-07-29T08:55:48;20.80;96.80
30648;DHT22;17683;53.360;9.736;2022-07-29T08:58:16;20.80;97.00
30648;DHT22;17683;53.360;9.736;2022-07-29T09:00:44;20.80;97.10
30648;DHT22;17683;53.360;9.736;2022-07-29T09:03:15;20.70;96.90
30648;DHT22;17683;53.360;9.736;2022-07-29T09:05:42;20.70;97.30
30648;DHT22;17683;53.360;9.736;2022-07-29T09:08:08;20.70;97.60
30648;DHT22;17683;53.360;9.736;2022-07-29T09:10:38;20.70;97.60
30648;DHT22;17683;53.360;9.736;2022-07-29T09:13:03;20.80;97.40
30648;DHT22;17683;53.360;9.736;2022-07-29T09:15:29;20.80;97.10
30648;DHT22;17683;53.360;9.736;2022-07-29T09:17:55;20.80;97.00
30648;DHT22;17683;53.360;9.736;2022-07-29T09:20:23;20.90;97.10
30648;DHT22;17683;53.360;9.736;2022-07-29T09:22:51;21.00;97.00
30648;DHT22;17683;53.360;9.736;2022-07-29T09:25:38;21.00;97.00
30648;DHT22;17683;53.360;9.736;2022-07-29T09:28:15;21.10;97.10
30648;DHT22;17683;53.360;9.736;2022-07-29T09:30:55;21.30;97.20
30648;DHT22;17683;53.360;9.736;2022-07-29T09:33:23;21.40;97.00
30648;DHT22;17683;53.360;9.736;2022-07-29T09:36:06;21.60;97.00
30648;DHT22;17683;53.360;9.736;2022-07-29T09:38:33;21.90;97.20
30648;DHT22;17683;53.360;9.736;2022-07-29T09:41:02;22.20;96.80
30648;DHT22;17683;53.360;9.736;2022-07-29T09:43:28;22.40;95.60
30648;DHT22;17683;53.360;9.736;2022-07-29T09:45:55;22.50;94.50
30648;DHT22;17683;53.360;9.736;2022-07-29T09:48:23;22.50;94.40
30648;DHT22;17683;53.360;9.736;2022-07-29T09:50:49;22.50;95.20
30648;DHT22;17683;53.360;9.736;2022-07-29T09:53:38;22.50;94.90
30648;DHT22;17683;53.360;9.736;2022-07-29T09:56:05;22.50;94.80
30648;DHT22;17683;53.360;9.736;2022-07-29T09:58:31;22.60;94.60
30648;DHT22;17683;53.360;9.736;2022-07-29T10:00:59;22.60;94.50
30648;DHT22;17683;53.360;9.736;2022-07-29T10:03:24;22.60;94.90
30648;DHT22;17683;53.360;9.736;2022-07-29T10:06:10;22.60;94.90
30648;DHT22;17683;53.360;9.736;2022-07-29T10:08:37;22.70;95.10
30648;DHT22;17683;53.360;9.736;2022-07-29T10:11:14;22.70;94.70
30648;DHT22;17683;53.360;9.736;2022-07-29T10:13:41;22.80;95.00
30648;DHT22;17683;53.360;9.736;2022-07-29T10:16:07;22.80;94.20
30648;DHT22;17683;53.360;9.736;2022-07-29T10:18:33;22.80;94.10
30648;DHT22;17683;53.360;9.736;2022-07-29T10:21:00;22.90;94.70
30648;DHT22;17683;53.360;9.736;2022-07-29T10:23:28;22.90;94.00
30648;DHT22;17683;53.360;9.736;2022-07-29T10:25:54;23.00;95.30
30648;DHT22;17683;53.360;9.736;2022-07-29T10:28:20;23.00;94.40
30648;DHT22;17683;53.360;9.736;2022-07-29T10:30:46;23.00;94.40
30648;DHT22;17683;53.360;9.736;2022-07-29T10:42:02;23.00;93.80
30648;DHT22;17683;53.360;9.736;2022-07-29T10:44:32;23.00;93.40
30648;DHT22;17683;53.360;9.736;2022-07-29T10:46:58;23.00;94.00
30648;DHT22;17683;53.360;9.736;2022-07-29T10:49:54;23.10;93.90
30648;DHT22;17683;53.360;9.736;2022-07-29T10:52:20;23.20;93.80
30648;DHT22;17683;53.360;9.736;2022-07-29T10:54:49;23.30;93.80
30648;DHT22;17683;53.360;9.736;2022-07-29T10:59:50;23.70;93.00
30648;DHT22;17683;53.360;9.736;2022-07-29T11:02:46;23.80;92.80
30648;DHT22;17683;53.360;9.736;2022-07-29T11:05:18;23.90;92.60
30648;DHT22;17683;53.360;9.736;2022-07-29T11:10:39;24.20;92.80
30648;DHT22;17683;53.360;9.736;2022-07-29T11:13:04;24.30;92.20
30648;DHT22;17683;53.360;9.736;2022-07-29T11:15:56;24.50;92.20
30648;DHT22;17683;53.360;9.736;2022-07-29T11:18:23;24.90;92.60
30648;DHT22;17683;53.360;9.736;2022-07-29T11:20:50;25.30;93.30
30648;DHT22;17683;53.360;9.736;2022-07-29T11:23:31;25.60;92.00
30648;DHT22;17683;53.360;9.736;2022-07-29T11:29:01;26.20;91.10
30648;DHT22;17683;53.360;9.736;2022-07-29T11:31:38;26.30;86.70
30648;DHT22;17683;53.360;9.736;2022-07-29T11:34:30;26.50;89.20
30648;DHT22;17683;53.360;9.736;2022-07-29T11:39:39;26.60;86.40
30648;DHT22;17683;53.360;9.736;2022-07-29T11:45:06;26.70;86.50
30648;DHT22;17683;53.360;9.736;2022-07-29T11:47:38;26.80;87.80
30648;DHT22;17683;53.360;9.736;2022-07-29T11:50:12;27.00;87.70
30648;DHT22;17683;53.360;9.736;2022-07-29T11:52:46;27.10;86.20
30648;DHT22;17683;53.360;9.736;2022-07-29T11:55:17;27.10;86.10
30648;DHT22;17683;53.360;9.736;2022-07-29T11:57:53;27.10;85.80
30648;DHT22;17683;53.360;9.736;2022-07-29T12:03:01;27.10;86.60
30648;DHT22;17683;53.360;9.736;2022-07-29T12:05:33;27.10;86.10
30648;DHT22;17683;53.360;9.736;2022-07-29T12:08:18;27.00;87.00
30648;DHT22;17683;53.360;9.736;2022-07-29T12:10:46;27.10;84.90
30648;DHT22;17683;53.360;9.736;2022-07-29T12:13:14;27.00;84.40
30648;DHT22;17683;53.360;9.736;2022-07-29T12:15:41;26.90;82.80
30648;DHT22;17683;53.360;9.736;2022-07-29T12:18:14;26.90;84.70
30648;DHT22;17683;53.360;9.736;2022-07-29T12:20:40;27.00;84.80
30648;DHT22;17683;53.360;9.736;2022-07-29T12:23:07;26.90;82.10
30648;DHT22;17683;53.360;9.736;2022-07-29T12:25:35;26.90;84.60
30648;DHT22;17683;53.360;9.736;2022-07-29T12:28:08;27.00;83.90
30648;DHT22;17683;53.360;9.736;2022-07-29T12:30:52;27.00;83.50
30648;DHT22;17683;53.360;9.736;2022-07-29T12:33:24;27.00;82.50
30648;DHT22;17683;53.360;9.736;2022-07-29T12:35:57;27.10;80.70
30648;DHT22;17683;53.360;9.736;2022-07-29T12:38:24;27.10;80.80
30648;DHT22;17683;53.360;9.736;2022-07-29T12:40:52;27.10;80.90
30648;DHT22;17683;53.360;9.736;2022-07-29T12:43:20;27.10;81.00
30648;DHT22;17683;53.360;9.736;2022-07-29T12:45:49;27.10;80.30
30648;DHT22;17683;53.360;9.736;2022-07-29T12:48:35;26.90;79.20
30648;DHT22;17683;53.360;9.736;2022-07-29T12:51:02;26.60;80.30
30648;DHT22;17683;53.360;9.736;2022-07-29T12:53:29;26.40;80.30
30648;DHT22;17683;53.360;9.736;2022-07-29T12:55:56;26.20;80.20
30648;DHT22;17683;53.360;9.736;2022-07-29T12:58:41;25.90;80.60
30648;DHT22;17683;53.360;9.736;2022-07-29T13:01:11;25.70;80.80
30648;DHT22;17683;53.360;9.736;2022-07-29T13:03:48;25.70;82.90
30648;DHT22;17683;53.360;9.736;2022-07-29T13:11:30;26.10;84.00
30648;DHT22;17683;53.360;9.736;2022-07-29T13:13:57;26.30;82.90
30648;DHT22;17683;53.360;9.736;2022-07-29T13:16:23;26.40;80.20
30648;DHT22;17683;53.360;9.736;2022-07-29T13:18:48;26.50;81.50
30648;DHT22;17683;53.360;9.736;2022-07-29T13:21:28;26.70;83.30
30648;DHT22;17683;53.360;9.736;2022-07-29T13:23:54;26.80;82.80
30648;DHT22;17683;53.360;9.736;2022-07-29T13:26:20;26.90;78.30
30648;DHT22;17683;53.360;9.736;2022-07-29T13:28:45;26.90;78.60
30648;DHT22;17683;53.360;9.736;2022-07-29T13:31:11;26.90;76.50
30648;DHT22;17683;53.360;9.736;2022-07-29T13:33:37;27.00;77.70
30648;DHT22;17683;53.360;9.736;2022-07-29T13:36:03;27.00;77.70
30648;DHT22;17683;53.360;9.736;2022-07-29T13:38:29;27.00;79.00
30648;DHT22;17683;53.360;9.736;2022-07-29T13:40:54;27.10;78.00
30648;DHT22;17683;53.360;9.736;2022-07-29T13:43:20;27.10;80.70
30648;DHT22;17683;53.360;9.736;2022-07-29T13:45:46;27.20;78.50
30648;DHT22;17683;53.360;9.736;2022-07-29T13:48:11;27.20;77.50
30648;DHT22;17683;53.360;9.736;2022-07-29T13:50:37;27.20;79.00
30648;DHT22;17683;53.360;9.736;2022-07-29T13:53:03;27.20;77.90
30648;DHT22;17683;53.360;9.736;2022-07-29T13:55:29;27.20;78.00
30648;DHT22;17683;53.360;9.736;2022-07-29T13:57:55;27.10;77.30
30648;DHT22;17683;53.360;9.736;2022-07-29T14:00:20;27.00;76.60
30648;DHT22;17683;53.360;9.736;2022-07-29T14:02:46;26.90;77.00
30648;DHT22;17683;53.360;9.736;2022-07-29T14:05:12;26.80;76.80
30648;DHT22;17683;53.360;9.736;2022-07-29T14:07:38;26.70;76.30
30648;DHT22;17683;53.360;9.736;2022-07-29T14:10:05;26.60;75.70
30648;DHT22;17683;53.360;9.736;2022-07-29T14:12:30;26.60;75.40
30648;DHT22;17683;53.360;9.736;2022-07-29T14:14:56;26.70;75.80
30648;DHT22;17683;53.360;9.736;2022-07-29T14:17:22;26.80;76.30
30648;DHT22;17683;53.360;9.736;2022-07-29T14:19:48;26.90;75.00
30648;DHT22;17683;53.360;9.736;2022-07-29T14:22:14;26.90;76.50
30648;DHT22;17683;53.360;9.736;2022-07-29T14:24:40;27.00;76.70
30648;DHT22;17683;53.360;9.736;2022-07-29T14:27:07;27.00;77.00
30648;DHT22;17683;53.360;9.736;2022-07-29T14:29:33;27.00;75.50
30648;DHT22;17683;53.360;9.736;2022-07-29T14:31:59;26.90;77.10
30648;DHT22;17683;53.360;9.736;2022-07-29T14:34:25;26.80;76.10
30648;DHT22;17683;53.360;9.736;2022-07-29T14:36:51;26.70;75.50
30648;DHT22;17683;53.360;9.736;2022-07-29T14:39:17;26.60;79.10
30648;DHT22;17683;53.360;9.736;2022-07-29T14:41:43;26.60;76.20
30648;DHT22;17683;53.360;9.736;2022-07-29T14:44:09;26.60;77.20
30648;DHT22;17683;53.360;9.736;2022-07-29T14:46:35;26.70;77.40
30648;DHT22;17683;53.360;9.736;2022-07-29T14:49:00;26.60;77.50
30648;DHT22;17683;53.360;9.736;2022-07-29T14:51:26;26.50;76.70
30648;DHT22;17683;53.360;9.736;2022-07-29T14:53:52;26.50;76.00
30648;DHT22;17683;53.360;9.736;2022-07-29T14:56:18;26.50;76.50
30648;DHT22;17683;53.360;9.736;2022-07-29T14:58:44;26.40;77.10
30648;DHT22;17683;53.360;9.736;2022-07-29T15:01:09;26.30;76.80
30648;DHT22;17683;53.360;9.736;2022-07-29T15:03:35;26.20;77.60
30648;DHT22;17683;53.360;9.736;2022-07-29T15:06:01;26.00;77.40
30648;DHT22;17683;53.360;9.736;2022-07-29T15:08:26;26.00;77.20
30648;DHT22;17683;53.360;9.736;2022-07-29T15:10:55;26.00;77.90
30648;DHT22;17683;53.360;9.736;2022-07-29T15:13:23;26.10;78.70
30648;DHT22;17683;53.360;9.736;2022-07-29T15:15:48;26.20;78.70
30648;DHT22;17683;53.360;9.736;2022-07-29T15:18:15;26.30;77.10
30648;DHT22;17683;53.360;9.736;2022-07-29T15:20:41;26.40;77.30
30648;DHT22;17683;53.360;9.736;2022-07-29T15:23:07;26.40;77.20
30648;DHT22;17683;53.360;9.736;2022-07-29T15:25:35;26.50;80.10
30648;DHT22;17683;53.360;9.736;2022-07-29T15:28:02;26.50;77.50
30648;DHT22;17683;53.360;9.736;2022-07-29T15:30:33;26.60;77.10
30648;DHT22;17683;53.360;9.736;2022-07-29T15:33:00;26.60;76.70
30648;DHT22;17683;53.360;9.736;2022-07-29T15:35:26;26.60;79.90
30648;DHT22;17683;53.360;9.736;2022-07-29T15:37:52;26.60;79.70
30648;DHT22;17683;53.360;9.736;2022-07-29T15:40:18;26.60;81.30
30648;DHT22;17683;53.360;9.736;2022-07-29T15:42:44;26.60;82.10
30648;DHT22;17683;53.360;9.736;2022-07-29T15:45:10;26.60;83.10
30648;DHT22;17683;53.360;9.736;2022-07-29T15:47:36;26.50;83.60
30648;DHT22;17683;53.360;9.736;2022-07-29T15:50:02;26.40;84.30
30648;DHT22;17683;53.360;9.736;2022-07-29T15:52:28;26.20;84.30
30648;DHT22;17683;53.360;9.736;2022-07-29T15:54:55;26.00;85.90
30648;DHT22;17683;53.360;9.736;2022-07-29T15:57:22;25.90;85.30
30648;DHT22;17683;53.360;9.736;2022-07-29T15:59:48;25.70;85.30
30648;DHT22;17683;53.360;9.736;2022-07-29T16:02:13;25.70;86.70
30648;DHT22;17683;53.360;9.736;2022-07-29T16:04:39;25.60;84.70
30648;DHT22;17683;53.360;9.736;2022-07-29T16:07:05;25.60;86.50
30648;DHT22;17683;53.360;9.736;2022-07-29T16:09:32;25.50;86.00
30648;DHT22;17683;53.360;9.736;2022-07-29T16:11:57;25.50;86.50
30648;DHT22;17683;53.360;9.736;2022-07-29T16:14:23;25.40;86.70
30648;DHT22;17683;53.360;9.736;2022-07-29T16:16:49;25.30;87.10
30648;DHT22;17683;53.360;9.736;2022-07-29T16:19:15;25.30;88.50
30648;DHT22;17683;53.360;9.736;2022-07-29T16:21:41;25.20;87.90